BosSS Express — ZR4529 — position and weather

sailwx.info

Track history (hours):
 
Tides and Currents Weather Stations Pressure Air Temp Water Temp Dewpoint Dewpoint Depression Visibility Wind Speed Wind Dir Waves Ship Positions

BosSS Express

Last reported at 2017-Dec-16 11:03 UTC. Time now 2017-Dec-18 03:04 UTC.
Position S 29°53' E 031°03'.

Length 14 m.

Type: Port tender. MMSI: 601198700.

Date/timePositionNaut miles runAvg speedWind from/ knotsBaromVisibWave heightAir tempDewpointWater temp
2017-Dec-16 11:03S 29°53' E 031°03'112.3
2017-Dec-16 11:01S 29°52' E 031°04'3 5.8
2017-Dec-16 10:30S 29°51' E 031°07'4 0.1
2017-Dec-15 07:31S 29°53' E 031°03'110.5
2017-Dec-15 07:27S 29°52' E 031°03'4 8.0
2017-Dec-15 07:00S 29°52' E 031°07'4 7.6
2017-Dec-15 06:29S 29°52' E 031°03'0 0.0
2017-Dec-14 08:25S 29°52' E 031°03'4 9.4
2017-Dec-14 07:58S 29°52' E 031°08'4 7.6
2017-Dec-14 07:29S 29°52' E 031°12'1 2.2
2017-Dec-14 07:00S 29°52' E 031°11'2 3.2
2017-Dec-14 06:30S 29°52' E 031°09'1 2.1
2017-Dec-14 05:58S 29°52' E 031°08'4 0.3
2017-Dec-13 14:19S 29°52' E 031°03'310.4
2017-Dec-13 14:00S 29°53' E 031°07'4 6.4
2017-Dec-13 13:27S 29°55' E 031°10'1 3.2
2017-Dec-13 13:00S 29°56' E 031°09'5 9.4
2017-Dec-13 12:29S 29°53' E 031°05'  
2017-Dec-10 15:49S 29°52' E 031°03'411.5
2017-Dec-10 15:30S 29°54' E 031°07'2 2.9
2017-Dec-10 14:56S 29°56' E 031°07'3 7.1
2017-Dec-10 14:30S 29°54' E 031°04'  
2017-Dec-08 06:59S 29°52' E 031°02'612.5
2017-Dec-08 06:30S 29°53' E 031°09'1 2.2
2017-Dec-08 06:01S 29°52' E 031°08'  
Track history (hours):
 
Tides and Currents Weather Stations Pressure Air Temp Water Temp Dewpoint Dewpoint Depression Visibility Wind Speed Wind Dir Waves Ship Positions

BosSS Express

Last reported at 2017-Dec-16 11:03 UTC. Time now 2017-Dec-18 03:04 UTC.
Position S 29°53' E 031°03'.

Length 14 m.

Type: Port tender. MMSI: 601198700.

Date/timePositionNaut miles runAvg speedWind from/ knotsBaromVisibWave heightAir tempDewpointWater temp
2017-Dec-16 11:03S 29°53' E 031°03'112.3
2017-Dec-16 11:01S 29°52' E 031°04'3 5.8
2017-Dec-16 10:30S 29°51' E 031°07'4 0.1
2017-Dec-15 07:31S 29°53' E 031°03'110.5
2017-Dec-15 07:27S 29°52' E 031°03'4 8.0
2017-Dec-15 07:00S 29°52' E 031°07'4 7.6
2017-Dec-15 06:29S 29°52' E 031°03'0 0.0
2017-Dec-14 08:25S 29°52' E 031°03'4 9.4
2017-Dec-14 07:58S 29°52' E 031°08'4 7.6
2017-Dec-14 07:29S 29°52' E 031°12'1 2.2
2017-Dec-14 07:00S 29°52' E 031°11'2 3.2
2017-Dec-14 06:30S 29°52' E 031°09'1 2.1
2017-Dec-14 05:58S 29°52' E 031°08'4 0.3
2017-Dec-13 14:19S 29°52' E 031°03'310.4
2017-Dec-13 14:00S 29°53' E 031°07'4 6.4
2017-Dec-13 13:27S 29°55' E 031°10'1 3.2
2017-Dec-13 13:00S 29°56' E 031°09'5 9.4
2017-Dec-13 12:29S 29°53' E 031°05'  
2017-Dec-10 15:49S 29°52' E 031°03'411.5
2017-Dec-10 15:30S 29°54' E 031°07'2 2.9
2017-Dec-10 14:56S 29°56' E 031°07'3 7.1
2017-Dec-10 14:30S 29°54' E 031°04'  
2017-Dec-08 06:59S 29°52' E 031°02'612.5
2017-Dec-08 06:30S 29°53' E 031°09'1 2.2
2017-Dec-08 06:01S 29°52' E 031°08'  

Dump ship's entire track history